Time;durP1;ratioP1;P1;durP2;ratioP2;P2;SDS_P1;SDS_P2;PMS_P1;PMS_P2;Temp;Humidity;BMP_temperature;BMP_pressure;BME280_temperature;BME280_humidity;BME280_pressure;Samples;Min_cycle;Max_cycle;Signal;HPM_P1;HPM_P2
2022/06/13 00:00:05;;;;;;;0.50;0.38;;;13.50;99.90;;;;;;5075878;28;20472;-80
2022/06/13 00:02:34;;;;;;;0.50;0.40;;;13.50;99.90;;;;;;5077627;28;20282;-80
2022/06/13 00:05:04;;;;;;;0.50;0.37;;;13.40;99.90;;;;;;5077093;28;20436;-80
2022/06/13 00:07:31;;;;;;;0.50;0.40;;;13.40;99.90;;;;;;5076447;28;20868;-80
2022/06/13 00:09:58;;;;;;;0.50;0.40;;;13.40;99.90;;;;;;5076469;28;20468;-79
2022/06/13 00:12:26;;;;;;;0.50;0.40;;;13.30;99.90;;;;;;5076367;28;20543;-80
2022/06/13 00:14:52;;;;;;;0.50;0.40;;;13.30;99.90;;;;;;5076285;28;20567;-80
2022/06/13 00:17:19;;;;;;;0.50;0.40;;;13.40;99.90;;;;;;5076399;28;20221;-80
2022/06/13 00:19:46;;;;;;;0.50;0.40;;;13.40;99.90;;;;;;5075380;28;20281;-80
2022/06/13 00:22:14;;;;;;;0.50;0.40;;;13.30;99.90;;;;;;5076455;28;20552;-80
2022/06/13 00:24:41;;;;;;;0.50;0.40;;;13.30;99.90;;;;;;5076647;28;20178;-80
2022/06/13 00:27:09;;;;;;;0.50;0.40;;;13.30;99.90;;;;;;5076547;28;20471;-80
2022/06/13 00:29:37;;;;;;;0.50;0.40;;;13.20;99.90;;;;;;5076388;28;20445;-80
2022/06/13 00:32:05;;;;;;;0.50;0.40;;;13.20;99.90;;;;;;5076294;28;20472;-80
2022/06/13 00:34:32;;;;;;;0.50;0.40;;;13.20;99.90;;;;;;5077067;28;20472;-80
2022/06/13 00:36:59;;;;;;;0.50;0.40;;;13.20;99.90;;;;;;5076604;28;20440;-80
2022/06/13 00:39:28;;;;;;;0.50;0.40;;;13.10;99.90;;;;;;5075536;28;20204;-80
2022/06/13 00:41:54;;;;;;;0.50;0.40;;;13.10;99.90;;;;;;5075985;28;20491;-80
2022/06/13 00:44:24;;;;;;;0.50;0.40;;;13.10;99.90;;;;;;5076203;28;20531;-80
2022/06/13 00:46:51;;;;;;;0.50;0.40;;;13.10;99.90;;;;;;5075947;28;20200;-80
2022/06/13 00:49:26;;;;;;;0.50;0.40;;;13.00;99.90;;;;;;5076192;28;20455;-80
2022/06/13 00:52:02;;;;;;;0.80;0.80;;;13.10;99.90;;;;;;5075705;28;20446;-81
2022/06/13 00:54:30;;;;;;;0.50;0.40;;;13.10;99.90;;;;;;5076190;28;20990;-79
2022/06/13 00:56:57;;;;;;;0.50;0.40;;;13.10;99.90;;;;;;5075750;28;20193;-80
2022/06/13 00:59:26;;;;;;;0.50;0.40;;;13.00;99.90;;;;;;5075680;28;20229;-80
2022/06/13 01:01:53;;;;;;;0.50;0.40;;;13.00;99.90;;;;;;5075502;28;20233;-80
2022/06/13 01:04:20;;;;;;;0.50;0.40;;;12.90;99.90;;;;;;5076010;28;20281;-79
2022/06/13 01:06:50;;;;;;;0.50;0.40;;;12.90;99.90;;;;;;5075476;28;20483;-80
2022/06/13 01:11:16;;;;;;;0.50;0.40;;;12.90;99.90;;;;;;5075380;28;20285;-80
2022/06/13 01:12:10;;;;;;;0.50;0.40;;;12.80;99.90;;;;;;5075422;28;20206;-80
2022/06/13 01:15:02;;;;;;;0.50;0.40;;;12.80;99.90;;;;;;5075569;28;20504;-80
2022/06/13 01:17:39;;;;;;;0.50;0.40;;;12.70;99.90;;;;;;5075104;28;20198;-80
2022/06/13 01:20:39;;;;;;;0.50;0.40;;;12.80;99.90;;;;;;5074826;28;20202;-80
2022/06/13 01:23:30;;;;;;;0.50;0.40;;;12.80;99.90;;;;;;5075000;28;20308;-80
2022/06/13 01:26:20;;;;;;;0.50;0.40;;;12.80;99.90;;;;;;5074982;28;20196;-80
2022/06/13 01:29:20;;;;;;;0.50;0.40;;;12.90;99.90;;;;;;5074746;28;20261;-80
2022/06/13 01:31:57;;;;;;;0.50;0.40;;;12.80;99.90;;;;;;5075577;28;20589;-80
2022/06/13 01:34:35;;;;;;;0.50;0.40;;;12.70;99.90;;;;;;5075001;28;20245;-80
2022/06/13 01:37:15;;;;;;;0.50;0.40;;;12.80;99.90;;;;;;5075526;28;20232;-79
2022/06/13 01:39:53;;;;;;;0.50;0.40;;;13.00;99.90;;;;;;5073921;28;20251;-80
2022/06/13 01:42:34;;;;;;;0.50;0.40;;;13.10;99.90;;;;;;5074980;28;20463;-80
2022/06/13 01:45:10;;;;;;;0.50;0.30;;;13.10;99.90;;;;;;5074990;28;20208;-80
2022/06/13 01:47:49;;;;;;;0.50;0.40;;;13.10;99.90;;;;;;5073822;28;20737;-79
2022/06/13 01:50:24;;;;;;;0.50;0.40;;;13.30;99.90;;;;;;5074311;28;20945;-80
2022/06/13 01:53:00;;;;;;;0.50;0.40;;;13.40;99.90;;;;;;5074627;28;20321;-80
2022/06/13 01:55:38;;;;;;;0.50;0.40;;;13.40;99.90;;;;;;5074499;28;20214;-80
2022/06/13 01:58:12;;;;;;;0.50;0.40;;;13.50;99.90;;;;;;5074780;28;20190;-80
2022/06/13 02:00:44;;;;;;;0.50;0.40;;;13.60;99.90;;;;;;5074226;28;20189;-80
2022/06/13 02:03:18;;;;;;;0.50;0.40;;;13.70;99.90;;;;;;5074844;28;20773;-80
2022/06/13 02:05:48;;;;;;;0.52;0.43;;;13.70;99.90;;;;;;5074386;28;20185;-80
2022/06/13 02:08:18;;;;;;;0.50;0.40;;;13.70;99.90;;;;;;5074135;28;20182;-80
2022/06/13 02:10:50;;;;;;;1.25;1.25;;;13.70;99.90;;;;;;5074572;28;20224;-80
2022/06/13 02:13:22;;;;;;;0.50;0.35;;;13.70;99.90;;;;;;5074259;28;20277;-80
2022/06/13 02:15:55;;;;;;;0.50;0.40;;;13.70;99.90;;;;;;5074361;28;20214;-80
2022/06/13 02:18:27;;;;;;;0.50;0.40;;;13.70;99.90;;;;;;5073418;28;20240;-80
2022/06/13 02:20:59;;;;;;;0.50;0.40;;;13.70;99.90;;;;;;5074158;28;20183;-80
2022/06/13 02:23:31;;;;;;;0.85;0.50;;;13.70;99.90;;;;;;5073444;28;20321;-80
2022/06/13 02:26:03;;;;;;;0.50;0.40;;;13.60;99.90;;;;;;5073366;28;20178;-80
2022/06/13 02:28:36;;;;;;;0.50;0.40;;;13.60;99.90;;;;;;5072999;28;20201;-79
2022/06/13 02:31:08;;;;;;;0.50;0.40;;;13.50;99.90;;;;;;5073246;28;20916;-79
2022/06/13 02:33:41;;;;;;;0.50;0.40;;;13.50;99.90;;;;;;5073737;28;20241;-80
2022/06/13 02:36:14;;;;;;;0.50;0.40;;;13.50;99.90;;;;;;5072844;28;20202;-80
2022/06/13 02:38:49;;;;;;;0.50;0.30;;;13.60;99.90;;;;;;5073200;28;20515;-80
2022/06/13 02:41:20;;;;;;;0.50;0.40;;;13.60;99.90;;;;;;5073697;28;20296;-80
2022/06/13 02:43:53;;;;;;;0.50;0.40;;;13.70;99.90;;;;;;5076377;28;20541;-80
2022/06/13 02:46:25;;;;;;;0.50;0.50;;;13.70;99.90;;;;;;5077871;28;20426;-80
2022/06/13 02:48:58;;;;;;;0.50;0.40;;;13.70;99.90;;;;;;5077397;28;20198;-80
2022/06/13 02:51:34;;;;;;;0.50;0.40;;;13.70;99.90;;;;;;5077049;28;20436;-80
2022/06/13 02:54:08;;;;;;;0.50;0.40;;;13.70;99.90;;;;;;5077426;28;20460;-80
2022/06/13 02:59:38;;;;;;;0.50;0.40;;;13.70;99.90;;;;;;5075369;28;20432;-80
2022/06/13 03:02:09;;;;;;;0.70;0.70;;;13.80;99.90;;;;;;5077450;28;20281;-80
2022/06/13 03:04:42;;;;;;;0.50;0.50;;;13.90;99.90;;;;;;5077178;28;20242;-80
2022/06/13 03:07:18;;;;;;;0.50;0.40;;;14.00;99.90;;;;;;5076631;28;20507;-80
2022/06/13 03:09:51;;;;;;;0.50;0.40;;;14.10;99.90;;;;;;5076982;28;20472;-80
2022/06/13 03:12:28;;;;;;;0.50;0.40;;;14.10;99.90;;;;;;5078464;28;20492;-79
2022/06/13 03:15:02;;;;;;;0.50;0.40;;;14.20;99.90;;;;;;5079668;28;20440;-77
2022/06/13 03:17:37;;;;;;;0.50;0.40;;;14.20;99.90;;;;;;5075460;28;20515;-78
2022/06/13 03:20:12;;;;;;;0.60;0.40;;;14.30;99.90;;;;;;5076081;28;20520;-78
2022/06/13 03:22:44;;;;;;;2.43;1.50;;;14.30;99.90;;;;;;5075484;28;20555;-79
2022/06/13 03:25:18;;;;;;;1.77;0.83;;;14.30;99.90;;;;;;5076252;28;20514;-78
2022/06/13 03:27:50;;;;;;;0.50;0.40;;;14.40;99.90;;;;;;5075390;28;20522;-79
2022/06/13 03:30:20;;;;;;;0.50;0.40;;;14.30;99.90;;;;;;5075199;28;20463;-79
2022/06/13 03:35:34;;;;;;;0.50;0.40;;;14.30;99.90;;;;;;5074809;28;20625;-79
2022/06/13 03:38:04;;;;;;;0.50;0.32;;;14.20;99.90;;;;;;5074976;28;20794;-79
2022/06/13 03:40:33;;;;;;;0.50;0.33;;;14.20;99.90;;;;;;5076485;28;20289;-81
2022/06/13 03:43:09;;;;;;;0.50;0.40;;;14.20;99.90;;;;;;5075323;28;20555;-80
2022/06/13 03:45:41;;;;;;;0.50;0.33;;;14.20;99.90;;;;;;5075200;28;20408;-79
2022/06/13 03:48:13;;;;;;;0.50;0.40;;;14.20;99.90;;;;;;5074908;28;20428;-80
2022/06/13 03:50:45;;;;;;;0.50;0.40;;;14.20;99.90;;;;;;5075473;28;20535;-77
2022/06/13 03:53:16;;;;;;;0.50;0.40;;;14.20;99.90;;;;;;5074626;28;20519;-79
2022/06/13 03:55:49;;;;;;;0.50;0.40;;;14.20;99.90;;;;;;5074907;28;20602;-78
2022/06/13 03:58:19;;;;;;;0.50;0.40;;;14.20;99.90;;;;;;5074700;28;20979;-80
2022/06/13 04:00:53;;;;;;;0.50;0.40;;;14.20;99.90;;;;;;5075142;28;20530;-80
2022/06/13 04:03:20;;;;;;;0.50;0.40;;;14.20;99.90;;;;;;5075465;28;20464;-79
2022/06/13 04:05:58;;;;;;;0.50;0.40;;;14.20;99.90;;;;;;5075535;28;20528;-80
2022/06/13 04:08:27;;;;;;;0.50;0.40;;;14.20;99.90;;;;;;5078097;28;20446;-78
2022/06/13 04:11:09;;;;;;;0.50;0.50;;;14.30;99.90;;;;;;5079849;28;20524;-80
2022/06/13 04:13:48;;;;;;;0.50;0.40;;;14.30;99.90;;;;;;5078566;28;20456;-81
2022/06/13 04:16:31;;;;;;;0.50;0.40;;;14.20;99.90;;;;;;5074834;28;20511;-80
2022/06/13 04:19:16;;;;;;;0.50;0.40;;;14.20;99.90;;;;;;5076396;28;20491;-80
2022/06/13 04:21:54;;;;;;;0.50;0.40;;;14.20;99.90;;;;;;5075686;28;20504;-80
2022/06/13 04:24:31;;;;;;;0.50;0.40;;;14.20;99.90;;;;;;5074756;28;20520;-77
2022/06/13 04:27:07;;;;;;;0.50;0.40;;;14.10;99.90;;;;;;5074106;28;20476;-79
2022/06/13 04:29:40;;;;;;;0.50;0.40;;;14.10;99.90;;;;;;5073878;28;20495;-78
2022/06/13 04:32:12;;;;;;;0.50;0.40;;;14.10;99.90;;;;;;5074365;28;20451;-80
2022/06/13 04:34:44;;;;;;;0.50;0.30;;;14.20;99.90;;;;;;5075099;28;20829;-79
2022/06/13 04:37:13;;;;;;;0.80;0.75;;;14.20;99.90;;;;;;5074341;28;20507;-80
2022/06/13 04:39:43;;;;;;;0.50;0.40;;;14.30;99.90;;;;;;5075271;28;20224;-80
2022/06/13 04:42:12;;;;;;;1.00;1.00;;;14.30;99.90;;;;;;5075422;28;20528;-80
2022/06/13 04:44:41;;;;;;;0.90;0.80;;;14.30;99.90;;;;;;5074828;28;20530;-79
2022/06/13 04:47:09;;;;;;;0.50;0.40;;;14.30;99.90;;;;;;5074952;28;20440;-78
2022/06/13 04:49:40;;;;;;;0.50;0.40;;;14.30;99.90;;;;;;5074330;28;20273;-80
2022/06/13 04:52:13;;;;;;;0.50;0.38;;;14.30;99.90;;;;;;5074831;28;20419;-78
2022/06/13 04:54:46;;;;;;;0.50;0.40;;;14.20;99.90;;;;;;5075268;28;20182;-79
2022/06/13 04:57:15;;;;;;;0.50;0.30;;;14.20;99.90;;;;;;5074941;28;20479;-80
2022/06/13 04:59:43;;;;;;;0.50;0.40;;;14.10;99.90;;;;;;5073803;28;20459;-80
2022/06/13 05:02:15;;;;;;;0.60;0.60;;;14.10;99.90;;;;;;5073330;28;20754;-81
2022/06/13 05:04:42;;;;;;;0.50;0.40;;;14.00;99.90;;;;;;5074873;28;20502;-79
2022/06/13 05:07:12;;;;;;;0.50;0.40;;;14.00;99.90;;;;;;5074431;28;20440;-80
2022/06/13 05:09:46;;;;;;;0.50;0.40;;;13.90;99.90;;;;;;5075499;28;20440;-80
2022/06/13 05:12:18;;;;;;;0.50;0.40;;;13.90;99.90;;;;;;5077836;28;20741;-80
2022/06/13 05:14:50;;;;;;;0.50;0.40;;;14.00;99.90;;;;;;5078287;28;20464;-80
2022/06/13 05:17:52;;;;;;;0.50;0.40;;;14.00;99.90;;;;;;5077052;28;20579;-80
2022/06/13 05:20:31;;;;;;;0.50;0.40;;;14.00;99.90;;;;;;5073280;28;20276;-81
2022/06/13 05:25:39;;;;;;;1.35;1.25;;;14.10;99.90;;;;;;5043607;22;20494;-83
2022/06/13 05:28:06;;;;;;;0.50;0.38;;;14.00;99.90;;;;;;5001915;28;20335;-84
2022/06/13 05:30:33;;;;;;;0.50;0.40;;;14.00;99.90;;;;;;5014777;28;20231;-82
2022/06/13 05:33:00;;;;;;;0.50;0.40;;;13.90;99.90;;;;;;5013193;28;20279;-84
2022/06/13 05:35:30;;;;;;;1.15;1.10;;;13.90;99.90;;;;;;5013877;28;20695;-81
2022/06/13 05:37:59;;;;;;;0.50;0.40;;;13.90;99.90;;;;;;5013223;28;20290;-82
2022/06/13 05:40:26;;;;;;;0.50;0.40;;;13.90;99.90;;;;;;5014032;28;20204;-84
2022/06/13 05:42:55;;;;;;;0.50;0.30;;;13.90;99.90;;;;;;5014093;28;20195;-82
2022/06/13 05:45:24;;;;;;;0.50;0.40;;;13.90;99.90;;;;;;5014070;28;20458;-81
2022/06/13 05:47:53;;;;;;;0.50;0.30;;;14.00;99.90;;;;;;5013640;28;20481;-82
2022/06/13 05:50:23;;;;;;;0.50;0.30;;;14.00;99.90;;;;;;5013296;28;20200;-84
2022/06/13 05:52:51;;;;;;;0.50;0.40;;;14.10;99.90;;;;;;5014575;28;20460;-84
2022/06/13 05:55:18;;;;;;;0.50;0.40;;;14.00;99.90;;;;;;5014677;28;20566;-85
2022/06/13 05:57:45;;;;;;;0.50;0.40;;;14.00;99.90;;;;;;5014265;28;20216;-81
2022/06/13 06:00:20;;;;;;;0.50;0.40;;;14.00;99.90;;;;;;5014429;28;20526;-84
2022/06/13 06:02:46;;;;;;;0.50;0.40;;;14.00;99.90;;;;;;5013865;28;20423;-83
2022/06/13 06:05:13;;;;;;;0.50;0.50;;;14.10;99.90;;;;;;5013958;28;20240;-83
2022/06/13 06:07:41;;;;;;;0.50;0.40;;;14.20;99.90;;;;;;5013708;28;20287;-83
2022/06/13 06:10:14;;;;;;;0.50;0.40;;;14.40;99.90;;;;;;5013320;28;20569;-83
2022/06/13 06:12:41;;;;;;;0.50;0.40;;;14.60;99.90;;;;;;5013668;28;20439;-83
2022/06/13 06:15:09;;;;;;;2.60;1.33;;;14.90;99.90;;;;;;5014536;28;20455;-80
2022/06/13 06:17:37;;;;;;;0.50;0.40;;;15.00;99.90;;;;;;5012383;28;20844;-83
2022/06/13 06:20:05;;;;;;;0.53;0.40;;;15.10;99.90;;;;;;5013421;28;20435;-83
2022/06/13 06:22:32;;;;;;;0.50;0.40;;;15.40;99.90;;;;;;5014059;28;20503;-83
2022/06/13 06:24:59;;;;;;;4.97;3.30;;;15.70;99.90;;;;;;5013695;28;20558;-84
2022/06/13 06:27:25;;;;;;;5.80;0.93;;;16.00;99.90;;;;;;5012992;28;20812;-82
2022/06/13 06:29:52;;;;;;;0.50;0.50;;;16.10;99.90;;;;;;5013139;28;20465;-83
2022/06/13 06:32:19;;;;;;;2.30;2.20;;;16.10;99.90;;;;;;5013916;28;20442;-83
2022/06/13 06:34:47;;;;;;;3.37;2.00;;;16.30;99.90;;;;;;5014130;28;20544;-83
2022/06/13 06:37:14;;;;;;;0.50;0.40;;;16.30;99.90;;;;;;5014123;28;20471;-82
2022/06/13 06:39:41;;;;;;;0.50;0.40;;;16.40;99.90;;;;;;5012709;28;20536;-83
2022/06/13 06:42:09;;;;;;;2.40;1.63;;;16.60;99.90;;;;;;5013480;28;20477;-83
2022/06/13 06:44:36;;;;;;;4.20;2.00;;;17.40;99.90;;;;;;5013869;28;20877;-83
2022/06/13 06:47:06;;;;;;;0.70;0.40;;;18.50;99.90;;;;;;5014099;28;20462;-83
2022/06/13 06:49:34;;;;;;;0.50;0.30;;;19.20;99.90;;;;;;5012888;28;20503;-83
2022/06/13 06:52:03;;;;;;;4.10;1.40;;;20.00;99.90;;;;;;5013526;28;20494;-83
2022/06/13 06:59:58;;;;;;;1.00;0.50;;;19.10;99.90;;;;;;5014109;28;20555;-83
2022/06/13 07:02:27;;;;;;;0.60;0.40;;;18.50;99.90;;;;;;5013390;28;20496;-83
2022/06/13 07:04:55;;;;;;;0.50;0.40;;;18.70;99.90;;;;;;5013723;28;20458;-84
2022/06/13 07:07:23;;;;;;;0.50;0.30;;;19.70;99.90;;;;;;5013478;28;20527;-81
2022/06/13 07:09:50;;;;;;;0.60;0.40;;;20.50;99.90;;;;;;5014010;28;20534;-84
2022/06/13 07:12:17;;;;;;;1.27;1.20;;;20.70;99.90;;;;;;5013368;28;20538;-83
2022/06/13 07:14:45;;;;;;;0.50;0.30;;;21.30;99.90;;;;;;5013541;28;20863;-84
2022/06/13 07:17:13;;;;;;;0.80;0.67;;;22.20;99.90;;;;;;5013207;28;20475;-82
2022/06/13 07:19:43;;;;;;;0.50;0.40;;;22.60;99.90;;;;;;5013562;28;20442;-85
2022/06/13 07:22:14;;;;;;;0.50;0.30;;;22.40;99.90;;;;;;5013131;28;20454;-83
2022/06/13 07:24:42;;;;;;;2.50;0.77;;;23.10;99.90;;;;;;5013009;28;20563;-84
2022/06/13 07:27:09;;;;;;;0.50;0.30;;;23.80;99.90;;;;;;5012886;28;20475;-83
2022/06/13 07:29:37;;;;;;;0.50;0.40;;;24.10;99.90;;;;;;5015803;28;20446;-83
2022/06/13 07:32:08;;;;;;;0.50;0.40;;;24.20;99.90;;;;;;5016219;28;20864;-86
2022/06/13 07:34:37;;;;;;;0.70;0.70;;;23.60;99.90;;;;;;5017478;28;20532;-84
2022/06/13 07:37:06;;;;;;;0.50;0.40;;;23.40;99.90;;;;;;5016765;28;20867;-82
2022/06/13 07:39:33;;;;;;;2.00;1.90;;;24.30;99.90;;;;;;5015196;28;20482;-82
2022/06/13 07:42:03;;;;;;;1.37;1.27;;;25.40;99.90;;;;;;5016483;28;20446;-84
2022/06/13 07:44:33;;;;;;;0.50;0.30;;;25.40;99.90;;;;;;5016623;28;20505;-81
2022/06/13 07:47:01;;;;;;;1.60;1.50;;;24.90;99.90;;;;;;5016222;28;20443;-82
2022/06/13 07:49:28;;;;;;;0.50;0.30;;;24.90;99.90;;;;;;5015985;28;20514;-83
2022/06/13 07:51:55;;;;;;;0.60;0.57;;;24.60;99.90;;;;;;5016782;28;20498;-85
2022/06/13 07:54:22;;;;;;;0.50;0.40;;;24.20;99.90;;;;;;5015486;28;20466;-83
2022/06/13 07:56:50;;;;;;;0.70;0.70;;;23.50;99.90;;;;;;5016031;28;20523;-83
2022/06/13 07:59:26;;;;;;;0.50;0.30;;;22.80;99.90;;;;;;5016292;28;20984;-83
2022/06/13 08:01:53;;;;;;;1.30;1.20;;;22.20;99.90;;;;;;5015886;28;20443;-83
2022/06/13 08:04:19;;;;;;;1.67;1.57;;;22.00;99.90;;;;;;5015693;28;20920;-83
2022/06/13 08:06:46;;;;;;;0.50;0.43;;;22.50;99.90;;;;;;5015839;28;20474;-84
2022/06/13 08:09:13;;;;;;;0.50;0.30;;;23.00;99.90;;;;;;5016291;28;20467;-83
2022/06/13 08:11:45;;;;;;;0.50;0.40;;;22.70;99.90;;;;;;5015864;28;20874;-83
2022/06/13 08:14:12;;;;;;;1.53;1.13;;;22.60;99.90;;;;;;5016127;28;20455;-83
2022/06/13 08:16:40;;;;;;;0.50;0.40;;;23.00;99.90;;;;;;5016010;28;20558;-84
2022/06/13 08:19:08;;;;;;;0.50;0.40;;;24.10;99.90;;;;;;5015394;28;20441;-83
2022/06/13 08:21:36;;;;;;;0.50;0.30;;;24.90;99.90;;;;;;5015079;28;20521;-84
2022/06/13 08:24:04;;;;;;;0.50;0.30;;;25.90;97.10;;;;;;5015105;28;20477;-83
2022/06/13 08:26:31;;;;;;;0.50;0.40;;;26.00;94.60;;;;;;5016032;28;20453;-84
2022/06/13 08:28:58;;;;;;;0.50;0.40;;;25.90;92.80;;;;;;5016552;28;20518;-84
2022/06/13 08:31:25;;;;;;;0.50;0.30;;;25.30;92.50;;;;;;5014927;28;20468;-82
2022/06/13 08:33:53;;;;;;;0.50;0.40;;;24.90;93.20;;;;;;5016281;28;20526;-83
2022/06/13 08:36:21;;;;;;;1.10;0.53;;;24.10;96.60;;;;;;5015318;28;20439;-82
2022/06/13 08:38:48;;;;;;;0.50;0.30;;;24.30;99.90;;;;;;5015650;28;20446;-84
2022/06/13 08:41:31;;;;;;;0.80;0.70;;;24.70;99.90;;;;;;5015673;28;20485;-83
2022/06/13 08:44:10;;;;;;;0.50;0.30;;;24.70;99.90;;;;;;5016072;28;20550;-83
2022/06/13 08:46:52;;;;;;;4.93;0.73;;;24.80;99.30;;;;;;5015903;28;20441;-84
2022/06/13 08:49:28;;;;;;;0.57;0.47;;;24.90;94.00;;;;;;5016262;28;20438;-84
2022/06/13 08:52:04;;;;;;;0.50;0.30;;;24.40;94.60;;;;;;5015950;28;20521;-84
2022/06/13 08:54:34;;;;;;;0.60;0.50;;;24.00;90.10;;;;;;5015040;28;20843;-83
2022/06/13 08:57:07;;;;;;;0.50;0.30;;;23.40;90.10;;;;;;5015801;28;20475;-84
2022/06/13 08:59:39;;;;;;;0.50;0.40;;;23.20;91.50;;;;;;5015634;28;20443;-84
2022/06/13 09:02:12;;;;;;;0.50;0.40;;;23.00;95.40;;;;;;5014821;28;20844;-82
2022/06/13 09:04:46;;;;;;;0.50;0.30;;;23.00;96.60;;;;;;5016104;28;20487;-83
2022/06/13 09:07:18;;;;;;;2.30;1.63;;;23.30;96.50;;;;;;5016081;28;20492;-82
2022/06/13 09:09:50;;;;;;;0.73;0.73;;;24.70;94.50;;;;;;5014628;28;20424;-84
2022/06/13 09:12:23;;;;;;;1.17;0.70;;;26.10;89.80;;;;;;5016140;28;20427;-84
2022/06/13 09:15:00;;;;;;;0.50;0.30;;;27.60;80.50;;;;;;5016100;28;20490;-84
2022/06/13 09:17:40;;;;;;;2.30;1.67;;;29.50;76.60;;;;;;5014896;28;20553;-85
2022/06/13 09:20:15;;;;;;;0.50;0.30;;;31.10;64.00;;;;;;5016162;28;20770;-84
2022/06/13 09:22:47;;;;;;;0.50;0.40;;;32.30;61.60;;;;;;5015580;28;20485;-85
2022/06/13 09:25:23;;;;;;;1.17;1.17;;;33.40;54.50;;;;;;5014933;28;20474;-84
2022/06/13 09:27:56;;;;;;;0.60;0.40;;;31.90;52.70;;;;;;5015514;28;20506;-84
2022/06/13 09:30:28;;;;;;;0.50;0.30;;;29.70;53.80;;;;;;5014584;28;20518;-83
2022/06/13 09:32:57;;;;;;;1.07;1.07;;;27.90;58.50;;;;;;5015124;28;20502;-84
2022/06/13 09:35:29;;;;;;;0.50;0.40;;;26.60;59.60;;;;;;5014828;28;20494;-84
2022/06/13 09:38:04;;;;;;;0.50;0.33;;;26.00;63.50;;;;;;5013811;28;20477;-82
2022/06/13 09:40:37;;;;;;;0.50;0.30;;;25.60;65.00;;;;;;5014476;28;20529;-82
2022/06/13 09:43:18;;;;;;;0.60;0.40;;;25.10;64.00;;;;;;5014884;28;20518;-81
2022/06/13 09:45:55;;;;;;;0.60;0.53;;;24.70;66.00;;;;;;5014121;28;20443;-84
2022/06/13 09:48:41;;;;;;;0.50;0.40;;;23.80;66.80;;;;;;5014249;28;20427;-84
2022/06/13 09:51:21;;;;;;;0.50;0.30;;;23.10;68.50;;;;;;5013948;28;20530;-83
2022/06/13 09:53:58;;;;;;;0.70;0.70;;;22.30;72.20;;;;;;5013830;28;20455;-83
2022/06/13 09:56:31;;;;;;;0.50;0.40;;;21.90;75.60;;;;;;5013679;28;20937;-84
2022/06/13 09:59:10;;;;;;;0.83;0.63;;;22.00;76.00;;;;;;5013223;28;20487;-80
2022/06/13 10:01:46;;;;;;;0.70;0.50;;;22.50;76.10;;;;;;5013996;28;20455;-82
2022/06/13 10:04:17;;;;;;;0.50;0.33;;;23.00;75.20;;;;;;5013808;28;20972;-83
2022/06/13 10:06:50;;;;;;;0.50;0.40;;;23.20;74.20;;;;;;5014043;28;20451;-84
2022/06/13 10:09:29;;;;;;;1.10;0.83;;;23.30;78.40;;;;;;5013527;28;20443;-82
2022/06/13 10:12:07;;;;;;;0.50;0.30;;;23.20;75.10;;;;;;5014268;28;20451;-83
2022/06/13 10:14:53;;;;;;;0.50;0.40;;;22.70;73.30;;;;;;5014753;28;20494;-84
2022/06/13 10:17:37;;;;;;;0.50;0.30;;;22.50;76.10;;;;;;5014274;28;20465;-84
2022/06/13 10:20:15;;;;;;;0.50;0.40;;;23.10;75.70;;;;;;5014455;28;20451;-83
2022/06/13 10:22:51;;;;;;;1.23;1.17;;;24.40;72.60;;;;;;5013457;28;20443;-84
2022/06/13 10:25:35;;;;;;;0.50;0.30;;;26.20;70.30;;;;;;5013834;28;20546;-85
2022/06/13 10:28:18;;;;;;;0.50;0.30;;;27.80;65.10;;;;;;5014394;28;20914;-84
2022/06/13 10:30:54;;;;;;;0.50;0.30;;;29.10;60.40;;;;;;5013888;28;20459;-84
2022/06/13 10:33:38;;;;;;;0.50;0.30;;;28.30;59.20;;;;;;5014883;28;20522;-84
2022/06/13 10:36:13;;;;;;;0.50;0.30;;;27.40;58.70;;;;;;5014597;28;20454;-84
2022/06/13 10:38:52;;;;;;;0.50;0.40;;;26.60;60.40;;;;;;5014232;28;21032;-84
2022/06/13 10:41:18;;;;;;;3.03;2.00;;;26.30;61.90;;;;;;5014332;28;20470;-80
2022/06/13 10:43:45;;;;;;;0.63;0.57;;;26.00;61.20;;;;;;5013704;28;20455;-85
2022/06/13 10:46:14;;;;;;;0.50;0.30;;;27.40;60.60;;;;;;5014353;28;20494;-82
2022/06/13 10:48:46;;;;;;;0.50;0.43;;;28.20;58.10;;;;;;5014312;28;20450;-84
2022/06/13 10:51:13;;;;;;;1.17;0.53;;;27.90;56.10;;;;;;5014244;28;20514;-84
2022/06/13 10:53:43;;;;;;;0.50;0.40;;;27.90;54.30;;;;;;5013265;28;20498;-81
2022/06/13 10:56:14;;;;;;;0.50;0.30;;;27.40;53.70;;;;;;5013739;28;20606;-83
2022/06/13 10:58:45;;;;;;;0.50;0.30;;;26.40;56.10;;;;;;5012948;28;21031;-83
2022/06/13 11:01:14;;;;;;;0.50;0.30;;;25.40;57.80;;;;;;5014288;28;20944;-83
2022/06/13 11:03:43;;;;;;;0.50;0.30;;;24.40;59.80;;;;;;5014397;28;20538;-84
2022/06/13 11:06:20;;;;;;;0.50;0.30;;;23.70;62.50;;;;;;5017114;28;20531;-83
2022/06/13 11:08:58;;;;;;;0.50;0.33;;;23.40;64.00;;;;;;5017099;28;20477;-83
2022/06/13 11:11:32;;;;;;;0.50;0.30;;;23.00;64.30;;;;;;5016795;28;20482;-84
2022/06/13 11:13:59;;;;;;;0.60;0.50;;;22.70;64.90;;;;;;5021073;28;20491;-82
2022/06/13 11:25:19;;;;;;;2.30;1.40;;;21.60;68.80;;;;;;5086003;22;21027;-80
2022/06/13 11:27:49;;;;;;;0.50;0.30;;;22.20;71.10;;;;;;5097016;28;20441;-80
2022/06/13 11:30:38;;;;;;;0.50;0.40;;;24.00;69.20;;;;;;5114165;28;20858;-79
2022/06/13 11:33:07;;;;;;;0.50;0.30;;;25.00;62.60;;;;;;5115698;28;20473;-80
2022/06/13 11:35:39;;;;;;;0.50;0.30;;;24.50;60.90;;;;;;5095780;28;20516;-80
2022/06/13 11:38:25;;;;;;;0.50;0.40;;;24.00;62.70;;;;;;5095869;28;20469;-80
2022/06/13 11:41:18;;;;;;;0.50;0.30;;;23.50;62.70;;;;;;5096295;28;20549;-80
2022/06/13 11:43:53;;;;;;;0.50;0.40;;;23.50;64.10;;;;;;5093093;28;20436;-79
2022/06/13 11:46:37;;;;;;;0.50;0.30;;;24.70;61.80;;;;;;5096354;28;20446;-79
2022/06/13 11:49:24;;;;;;;0.50;0.30;;;25.60;59.60;;;;;;5096223;28;20964;-79
2022/06/13 11:51:55;;;;;;;0.50;0.40;;;25.20;58.30;;;;;;5096431;28;20494;-80
2022/06/13 11:54:27;;;;;;;0.50;0.30;;;24.70;59.00;;;;;;5096016;28;20455;-79
2022/06/13 11:59:53;;;;;;;0.50;0.30;;;24.60;59.90;;;;;;5110613;27;20999;-79
2022/06/13 12:02:23;;;;;;;0.50;0.30;;;27.20;55.30;;;;;;5090253;28;20902;-80
2022/06/13 12:04:54;;;;;;;0.50;0.30;;;28.60;54.90;;;;;;5090358;28;20455;-79
2022/06/13 12:07:24;;;;;;;0.50;0.40;;;29.30;51.90;;;;;;5090142;28;20530;-79
2022/06/13 12:09:56;;;;;;;0.50;0.30;;;29.00;52.10;;;;;;5090495;28;20424;-79
2022/06/13 12:12:26;;;;;;;0.50;0.40;;;28.40;51.60;;;;;;5090692;28;20637;-80
2022/06/13 12:14:56;;;;;;;0.50;0.30;;;27.90;53.00;;;;;;5090237;28;20459;-78
2022/06/13 12:17:29;;;;;;;0.50;0.30;;;27.20;54.60;;;;;;5089238;28;20961;-78
2022/06/13 12:20:02;;;;;;;0.50;0.30;;;28.20;53.30;;;;;;5089879;28;20912;-79
2022/06/13 12:22:36;;;;;;;0.50;0.30;;;28.90;50.80;;;;;;5089876;28;20432;-81
2022/06/13 12:25:11;;;;;;;0.50;0.30;;;29.30;50.90;;;;;;5090202;28;20891;-79
2022/06/13 12:27:47;;;;;;;0.50;0.30;;;28.30;51.60;;;;;;5089672;28;20415;-79
2022/06/13 12:30:38;;;;;;;0.50;0.30;;;26.90;53.80;;;;;;5088882;28;20527;-79
2022/06/13 12:33:17;;;;;;;0.50;0.30;;;25.70;55.40;;;;;;5087037;28;20876;-77
2022/06/13 12:36:03;;;;;;;0.50;0.30;;;25.20;56.60;;;;;;5090073;28;20483;-79
2022/06/13 12:38:48;;;;;;;1.30;1.13;;;26.20;58.00;;;;;;5089208;28;20456;-80
2022/06/13 12:41:28;;;;;;;0.70;0.60;;;27.10;52.60;;;;;;5089897;28;20531;-79
2022/06/13 12:44:09;;;;;;;0.50;0.30;;;28.10;52.50;;;;;;5089017;28;20940;-79
2022/06/13 12:46:47;;;;;;;0.50;0.30;;;28.90;52.70;;;;;;5089998;28;20518;-79
2022/06/13 12:49:34;;;;;;;0.50;0.30;;;29.80;50.50;;;;;;5088959;28;20454;-80
2022/06/13 12:52:11;;;;;;;0.50;0.30;;;30.10;50.00;;;;;;5089684;28;20523;-80
2022/06/13 12:54:53;;;;;;;0.50;0.30;;;30.20;49.90;;;;;;5088912;28;20459;-78
2022/06/13 12:57:35;;;;;;;0.60;0.43;;;29.10;49.70;;;;;;5088954;28;20498;-80
2022/06/13 13:00:14;;;;;;;0.50;0.30;;;27.80;51.30;;;;;;5089386;28;20469;-79
2022/06/13 13:03:11;;;;;;;0.50;0.30;;;27.00;53.60;;;;;;5089575;28;20431;-80
2022/06/13 13:05:46;;;;;;;0.50;0.30;;;27.80;53.50;;;;;;5089333;28;20494;-79
2022/06/13 13:08:26;;;;;;;0.50;0.30;;;27.50;53.50;;;;;;5088934;28;20423;-78
2022/06/13 13:11:12;;;;;;;1.57;1.07;;;26.80;53.90;;;;;;5076312;28;20985;-78
2022/06/13 13:13:47;;;;;;;0.50;0.30;;;25.70;55.50;;;;;;5074327;28;20436;-78
2022/06/13 13:16:24;;;;;;;0.50;0.30;;;25.00;57.30;;;;;;5073884;28;20457;-78
2022/06/13 13:19:28;;;;;;;0.50;0.30;;;24.80;57.30;;;;;;5073329;28;20462;-79
2022/06/13 13:22:00;;;;;;;4.37;0.60;;;25.70;58.40;;;;;;5071528;28;20522;-78
2022/06/13 13:24:43;;;;;;;0.50;0.30;;;26.80;55.90;;;;;;5073339;28;20464;-78
2022/06/13 13:27:13;;;;;;;0.50;0.30;;;27.30;55.20;;;;;;5074090;28;20846;-77
2022/06/13 13:29:49;;;;;;;0.50;0.30;;;27.70;54.10;;;;;;5074041;28;20527;-79
2022/06/13 13:32:24;;;;;;;0.50;0.30;;;28.10;53.10;;;;;;5073399;28;20870;-78
2022/06/13 13:35:04;;;;;;;0.50;0.30;;;28.70;51.50;;;;;;5073870;28;20555;-78
2022/06/13 13:37:35;;;;;;;0.50;0.30;;;28.80;52.10;;;;;;5073974;28;20511;-79
2022/06/13 13:40:11;;;;;;;0.50;0.30;;;29.00;51.30;;;;;;5074696;28;20587;-78
2022/06/13 13:42:46;;;;;;;0.50;0.30;;;28.40;50.50;;;;;;5075121;28;20509;-79